createdAt,value
2022-10-05T00:01:22.401Z,99572.00
2022-10-05T00:03:49.182Z,99569.20
2022-10-05T00:06:15.841Z,99565.20
2022-10-05T00:08:43.345Z,99566.00
2022-10-05T00:11:15.189Z,99570.80
2022-10-05T00:13:42.330Z,99567.00
2022-10-05T00:16:22.268Z,99569.00
2022-10-05T00:18:51.961Z,99567.20
2022-10-05T00:21:26.048Z,99566.80
2022-10-05T00:23:56.885Z,99561.20
2022-10-05T00:26:26.971Z,99552.00
2022-10-05T00:28:54.776Z,99546.40
2022-10-05T00:31:30.717Z,99544.60
2022-10-05T00:33:58.009Z,99540.80
2022-10-05T00:36:26.166Z,99536.40
2022-10-05T00:38:53.274Z,99530.60
2022-10-05T00:41:56.935Z,99529.00
2022-10-05T00:45:15.362Z,99516.40
2022-10-05T00:48:33.733Z,99503.40
2022-10-05T00:51:25.710Z,99523.20
2022-10-05T00:54:17.448Z,99527.00
2022-10-05T00:57:31.789Z,99530.60
2022-10-05T01:00:04.847Z,99533.80
2022-10-05T01:02:59.272Z,99534.40
2022-10-05T01:05:49.929Z,99528.80
2022-10-05T01:08:51.229Z,99533.20
2022-10-05T01:11:45.313Z,99526.60
2022-10-05T01:14:27.621Z,99522.80
2022-10-05T01:17:18.482Z,99529.40
2022-10-05T01:20:15.080Z,99520.40
2022-10-05T01:23:36.102Z,99518.40
2022-10-05T01:26:20.618Z,99512.20
2022-10-05T01:29:06.250Z,99510.00
2022-10-05T01:31:45.050Z,99519.60
2022-10-05T01:34:35.642Z,99516.00
2022-10-05T01:37:24.697Z,99522.00
2022-10-05T01:40:23.456Z,99524.40
2022-10-05T01:43:27.998Z,99535.80
2022-10-05T01:46:28.802Z,99538.20
2022-10-05T01:49:28.306Z,99541.60
2022-10-05T01:52:18.525Z,99546.20
2022-10-05T01:55:14.153Z,99551.00
2022-10-05T01:58:03.250Z,99544.20
2022-10-05T02:00:38.949Z,99554.40
2022-10-05T02:03:19.276Z,99558.20
2022-10-05T02:06:04.269Z,99553.20
2022-10-05T02:08:39.509Z,99552.40
2022-10-05T02:11:24.112Z,99550.20
2022-10-05T02:13:58.194Z,99552.20
2022-10-05T02:16:44.003Z,99531.40
2022-10-05T02:19:32.081Z,99525.00
2022-10-05T02:22:21.583Z,99509.80
2022-10-05T02:24:55.496Z,99507.40
2022-10-05T02:27:29.835Z,99504.80
2022-10-05T02:30:05.899Z,99499.20
2022-10-05T02:32:49.689Z,99499.40
2022-10-05T02:35:19.858Z,99516.00
2022-10-05T02:38:16.940Z,99521.40
2022-10-05T02:40:59.809Z,99513.00
2022-10-05T02:43:39.047Z,99514.40
2022-10-05T02:46:41.827Z,99516.00
2022-10-05T02:49:48.120Z,99519.80
2022-10-05T02:52:27.613Z,99513.00
2022-10-05T02:55:19.172Z,99501.80
2022-10-05T02:58:11.961Z,99505.00
2022-10-05T03:01:20.165Z,99514.00
2022-10-05T03:04:46.409Z,99504.00
2022-10-05T03:07:23.563Z,99514.40
2022-10-05T03:10:04.903Z,99514.60
2022-10-05T03:12:52.661Z,99504.00
2022-10-05T03:16:04.335Z,99497.00
2022-10-05T03:19:22.192Z,99487.80
2022-10-05T03:22:26.089Z,99490.00
2022-10-05T03:25:47.156Z,99508.80
2022-10-05T03:28:26.738Z,99522.60
2022-10-05T03:31:18.480Z,99521.80
2022-10-05T03:34:00.200Z,99507.80
2022-10-05T03:36:29.643Z,99489.20
2022-10-05T03:39:20.590Z,99492.00
2022-10-05T03:42:05.527Z,99483.80
2022-10-05T03:44:39.236Z,99476.20
2022-10-05T03:47:30.008Z,99471.60
2022-10-05T03:50:31.553Z,99468.40
2022-10-05T03:53:06.846Z,99467.60
2022-10-05T03:55:45.424Z,99470.40
2022-10-05T03:58:42.617Z,99467.80
2022-10-05T04:01:18.640Z,99473.60
2022-10-05T04:03:57.174Z,99481.40
2022-10-05T04:06:33.271Z,99478.40
2022-10-05T04:09:11.208Z,99477.60
2022-10-05T04:11:52.431Z,99480.00
2022-10-05T04:14:26.786Z,99478.80
2022-10-05T04:17:06.162Z,99483.00
2022-10-05T04:19:45.833Z,99478.80
2022-10-05T04:22:25.152Z,99474.20
2022-10-05T04:25:16.766Z,99478.80
2022-10-05T04:27:54.907Z,99477.80
2022-10-05T04:30:24.606Z,99473.00
2022-10-05T04:32:57.773Z,99474.00
2022-10-05T04:35:53.435Z,99476.60
2022-10-05T04:38:35.060Z,99463.00
2022-10-05T04:41:37.275Z,99460.20
2022-10-05T04:44:37.526Z,99466.00
2022-10-05T04:47:38.702Z,99461.80
2022-10-05T04:50:24.060Z,99466.20
2022-10-05T04:53:23.209Z,99469.20
2022-10-05T04:56:03.302Z,99482.60
2022-10-05T04:58:45.443Z,99492.40
2022-10-05T05:01:41.772Z,99499.80
2022-10-05T05:04:51.814Z,99495.40
2022-10-05T05:07:52.913Z,99501.00
2022-10-05T05:10:31.694Z,99508.40
2022-10-05T05:13:13.660Z,99501.60
2022-10-05T05:16:04.667Z,99505.00
2022-10-05T05:19:12.823Z,99500.40
2022-10-05T05:22:00.159Z,99505.60
2022-10-05T05:24:40.770Z,99496.00
2022-10-05T05:27:38.776Z,99496.60
2022-10-05T05:30:24.562Z,99496.20
2022-10-05T05:33:13.748Z,99491.60
2022-10-05T05:36:09.154Z,99490.80
2022-10-05T05:38:49.150Z,99487.60
2022-10-05T05:41:35.226Z,99490.60
2022-10-05T05:44:17.235Z,99484.60
2022-10-05T05:47:35.142Z,99492.40
2022-10-05T05:50:41.164Z,99492.00
2022-10-05T05:53:42.793Z,99485.40
2022-10-05T05:56:21.973Z,99497.20
2022-10-05T05:59:02.598Z,99491.60
2022-10-05T06:01:47.354Z,99495.40
2022-10-05T06:04:31.583Z,99486.40
2022-10-05T06:07:03.545Z,99482.20
2022-10-05T06:09:41.405Z,99480.80
2022-10-05T06:12:16.759Z,99481.60
2022-10-05T06:14:51.279Z,99471.20
2022-10-05T06:17:35.133Z,99478.60
2022-10-05T06:20:09.268Z,99492.60
2022-10-05T06:22:47.253Z,99484.60
2022-10-05T06:25:13.655Z,99474.80
2022-10-05T06:28:13.409Z,99477.00
2022-10-05T06:31:03.788Z,99480.60
2022-10-05T06:33:52.135Z,99479.20
2022-10-05T06:36:32.513Z,99475.80
2022-10-05T06:39:18.672Z,99479.80
2022-10-05T06:42:16.968Z,99490.20
2022-10-05T06:45:21.440Z,99486.40
2022-10-05T06:48:25.446Z,99491.00
2022-10-05T06:51:07.905Z,99483.40
2022-10-05T06:53:53.403Z,99481.20
2022-10-05T06:56:50.353Z,99478.60
2022-10-05T06:59:42.989Z,99490.20
2022-10-05T07:02:56.122Z,99493.20
2022-10-05T07:05:44.446Z,99500.80
2022-10-05T07:08:20.439Z,99502.80
2022-10-05T07:11:30.969Z,99503.60
2022-10-05T07:14:03.730Z,99504.40
2022-10-05T07:17:18.947Z,99505.60
2022-10-05T07:20:09.822Z,99502.00
2022-10-05T07:22:59.275Z,99499.00
2022-10-05T07:25:41.115Z,99497.40
2022-10-05T07:28:30.043Z,99492.00
2022-10-05T07:31:06.855Z,99494.60
2022-10-05T07:33:46.208Z,99504.20
2022-10-05T07:36:54.843Z,99494.80
2022-10-05T07:39:58.551Z,99482.40
2022-10-05T07:42:56.468Z,99476.20
2022-10-05T07:45:42.940Z,99467.00
2022-10-05T07:48:22.514Z,99468.80
2022-10-05T07:51:22.745Z,99473.20
2022-10-05T07:54:16.000Z,99474.40
2022-10-05T07:56:47.065Z,99471.80
2022-10-05T07:59:31.253Z,99465.60
2022-10-05T08:02:18.825Z,99460.40
2022-10-05T08:04:59.726Z,99460.00
2022-10-05T08:07:31.539Z,99458.60
2022-10-05T08:10:33.951Z,99456.20
2022-10-05T08:13:16.726Z,99450.20
2022-10-05T08:15:49.505Z,99449.60
2022-10-05T08:18:37.311Z,99446.80
2022-10-05T08:21:11.930Z,99443.20
2022-10-05T08:23:56.659Z,99439.80
2022-10-05T08:27:01.190Z,99443.40
2022-10-05T08:30:01.538Z,99447.40
2022-10-05T08:32:45.590Z,99438.20
2022-10-05T08:35:28.267Z,99433.20
2022-10-05T08:37:55.979Z,99424.00
2022-10-05T08:40:46.938Z,99429.40
2022-10-05T08:43:44.566Z,99439.00
2022-10-05T08:46:58.137Z,99435.20
2022-10-05T08:50:18.197Z,99434.80
2022-10-05T08:53:41.738Z,99437.80
2022-10-05T08:56:19.071Z,99438.40
2022-10-05T08:59:14.215Z,99441.80
2022-10-05T09:02:13.607Z,99435.00
2022-10-05T09:05:44.754Z,99434.40
2022-10-05T09:08:35.972Z,99427.60
2022-10-05T09:11:17.688Z,99423.60
2022-10-05T09:14:11.182Z,99424.00
2022-10-05T09:16:52.985Z,99421.80
2022-10-05T09:19:43.576Z,99425.20
2022-10-05T09:22:24.149Z,99421.00
2022-10-05T09:24:57.170Z,99425.00
2022-10-05T09:27:37.853Z,99422.00
2022-10-05T09:30:36.422Z,99417.00
2022-10-05T09:33:47.589Z,99418.80
2022-10-05T09:36:48.097Z,99422.20
2022-10-05T09:39:44.209Z,99422.40
2022-10-05T09:42:37.024Z,99424.80
2022-10-05T09:45:41.348Z,99428.60
2022-10-05T09:49:18.943Z,99435.40
2022-10-05T09:52:41.100Z,99439.60
2022-10-05T09:55:37.831Z,99445.60
2022-10-05T09:58:48.924Z,99446.80
2022-10-05T10:01:33.801Z,99454.20
2022-10-05T10:04:36.439Z,99456.40
2022-10-05T10:08:00.680Z,99452.60
2022-10-05T10:10:56.124Z,99442.40
2022-10-05T10:14:02.798Z,99444.60
2022-10-05T10:17:37.693Z,99444.80
2022-10-05T10:20:21.492Z,99442.60
2022-10-05T10:22:57.548Z,99440.80
2022-10-05T10:26:02.515Z,99435.00
2022-10-05T10:28:54.538Z,99433.80
2022-10-05T10:31:55.988Z,99435.00
2022-10-05T10:34:53.308Z,99429.40
2022-10-05T10:37:52.343Z,99428.60
2022-10-05T10:40:43.015Z,99429.20
2022-10-05T10:43:55.606Z,99423.60
2022-10-05T10:46:45.579Z,99412.60
2022-10-05T10:49:47.810Z,99409.20
2022-10-05T10:52:56.699Z,99399.00
2022-10-05T10:56:04.095Z,99404.80
2022-10-05T10:59:07.638Z,99410.80
2022-10-05T11:02:18.170Z,99415.00
2022-10-05T11:05:28.639Z,99412.60
2022-10-05T11:08:35.072Z,99416.60
2022-10-05T11:11:32.884Z,99416.80
2022-10-05T11:14:47.190Z,99410.00
2022-10-05T11:17:44.697Z,99407.60
2022-10-05T11:20:48.063Z,99408.00
2022-10-05T11:24:12.801Z,99410.00
2022-10-05T11:27:17.439Z,99406.60
2022-10-05T11:30:35.285Z,99401.40
2022-10-05T11:33:36.260Z,99396.40
2022-10-05T11:36:33.672Z,99393.20
2022-10-05T11:39:30.802Z,99386.80
2022-10-05T11:42:30.981Z,99384.80
2022-10-05T11:45:23.339Z,99388.60
2022-10-05T11:48:42.746Z,99386.00
2022-10-05T11:51:34.754Z,99375.80
2022-10-05T11:54:52.110Z,99378.20
2022-10-05T11:57:53.252Z,99372.80
2022-10-05T12:00:24.894Z,99367.80
2022-10-05T12:03:19.280Z,99367.80
2022-10-05T12:06:21.909Z,99369.40
2022-10-05T12:09:17.797Z,99370.40
2022-10-05T12:12:18.692Z,99376.60
2022-10-05T12:15:01.601Z,99383.80
2022-10-05T12:17:48.211Z,99374.00
2022-10-05T12:20:28.052Z,99366.20
2022-10-05T12:23:15.013Z,99362.80
2022-10-05T12:25:49.923Z,99357.60
2022-10-05T12:28:27.587Z,99352.20
2022-10-05T12:31:05.242Z,99350.40
2022-10-05T12:33:47.340Z,99344.40
2022-10-05T12:36:26.352Z,99345.20
2022-10-05T12:39:13.808Z,99351.00
2022-10-05T12:41:57.700Z,99350.20
2022-10-05T12:45:25.852Z,99350.20
2022-10-05T12:48:14.567Z,99349.20
2022-10-05T12:50:49.206Z,99347.60
2022-10-05T12:53:50.233Z,99347.80
2022-10-05T12:56:44.717Z,99338.20
2022-10-05T12:59:40.369Z,99330.80
2022-10-05T13:02:43.812Z,99326.60
2022-10-05T13:05:10.151Z,99327.40
2022-10-05T13:08:17.960Z,99325.40
2022-10-05T13:11:33.020Z,99330.20
2022-10-05T13:14:19.775Z,99330.40
2022-10-05T13:17:14.668Z,99331.40
2022-10-05T13:19:56.216Z,99328.40
2022-10-05T13:22:48.502Z,99334.80
2022-10-05T13:25:32.774Z,99332.60
2022-10-05T13:28:02.076Z,99329.40
2022-10-05T13:30:29.644Z,99330.40
2022-10-05T13:33:21.524Z,99327.20
2022-10-05T13:36:14.723Z,99324.00
2022-10-05T13:39:05.612Z,99325.60
2022-10-05T13:42:32.865Z,99328.40
2022-10-05T13:45:20.580Z,99327.40
2022-10-05T13:48:41.307Z,99323.40
2022-10-05T13:51:18.357Z,99314.80
2022-10-05T13:53:59.516Z,99318.20
2022-10-05T13:56:33.420Z,99315.00
2022-10-05T13:59:18.987Z,99309.80
2022-10-05T14:02:07.591Z,99311.80
2022-10-05T14:04:50.789Z,99311.80
2022-10-05T14:07:56.530Z,99305.00
2022-10-05T14:10:44.391Z,99305.20
2022-10-05T14:13:46.618Z,99309.40
2022-10-05T14:16:13.168Z,99304.60
2022-10-05T14:19:05.808Z,99312.00
2022-10-05T14:21:49.524Z,99306.60
2022-10-05T14:24:54.682Z,99308.80
2022-10-05T14:27:33.212Z,99310.00
2022-10-05T14:30:03.110Z,99309.60
2022-10-05T14:32:47.731Z,99309.40
2022-10-05T14:35:18.453Z,99307.60
2022-10-05T14:37:53.909Z,99304.60
2022-10-05T14:40:38.149Z,99307.20
2022-10-05T14:43:13.844Z,99312.80
2022-10-05T14:46:15.070Z,99307.60
2022-10-05T14:48:45.122Z,99299.80
2022-10-05T14:51:32.370Z,99293.80
2022-10-05T14:54:29.067Z,99293.00
2022-10-05T14:57:10.093Z,99293.00
2022-10-05T15:00:11.976Z,99295.00
2022-10-05T15:02:59.708Z,99290.20
2022-10-05T15:05:43.430Z,99286.40
2022-10-05T15:08:31.369Z,99284.00
2022-10-05T15:11:07.517Z,99279.20
2022-10-05T15:13:41.777Z,99279.40
2022-10-05T15:16:25.953Z,99274.80
2022-10-05T15:19:44.758Z,99268.20
2022-10-05T15:22:48.802Z,99274.40
2022-10-05T15:25:23.089Z,99272.20
2022-10-05T15:28:48.320Z,99273.60
2022-10-05T15:31:48.761Z,99273.60
2022-10-05T15:34:37.419Z,99276.00
2022-10-05T15:37:24.539Z,99273.40
2022-10-05T15:40:03.688Z,99271.80
2022-10-05T15:42:41.502Z,99270.20
2022-10-05T15:45:23.466Z,99266.80
2022-10-05T15:48:00.968Z,99265.60
2022-10-05T15:50:35.133Z,99263.40
2022-10-05T15:53:14.412Z,99262.40
2022-10-05T15:56:03.032Z,99263.40
2022-10-05T15:58:55.743Z,99270.00
2022-10-05T16:01:52.501Z,99263.60
2022-10-05T16:04:54.683Z,99268.80
2022-10-05T16:07:50.697Z,99266.60
2022-10-05T16:10:22.209Z,99258.60
2022-10-05T16:13:05.715Z,99259.80
2022-10-05T16:15:50.119Z,99260.60
2022-10-05T16:19:01.055Z,99253.60
2022-10-05T16:21:58.394Z,99255.60
2022-10-05T16:24:59.661Z,99252.40
2022-10-05T16:28:29.258Z,99257.20
2022-10-05T16:31:12.818Z,99254.00
2022-10-05T16:34:09.442Z,99264.00
2022-10-05T16:37:20.541Z,99265.40
2022-10-05T16:39:55.639Z,99263.20
2022-10-05T16:43:03.104Z,99266.80
2022-10-05T16:45:58.386Z,99266.00
2022-10-05T16:48:31.015Z,99271.60
2022-10-05T16:51:24.919Z,99273.40
2022-10-05T16:54:09.891Z,99268.60
2022-10-05T16:57:22.165Z,99266.80
2022-10-05T17:00:14.912Z,99265.20
2022-10-05T17:03:13.303Z,99268.00
2022-10-05T17:06:13.410Z,99269.60
2022-10-05T17:09:14.475Z,99270.00
2022-10-05T17:11:54.048Z,99264.60
2022-10-05T17:15:14.635Z,99260.60
2022-10-05T17:18:23.559Z,99262.20
2022-10-05T17:21:07.917Z,99260.80
2022-10-05T17:23:57.577Z,99258.80
2022-10-05T17:26:45.861Z,99261.20
2022-10-05T17:29:27.994Z,99262.20
2022-10-05T17:32:06.330Z,99261.60
2022-10-05T17:34:36.346Z,99263.60
2022-10-05T17:37:38.999Z,99263.80
2022-10-05T17:40:38.605Z,99263.80
2022-10-05T17:43:17.186Z,99264.20
2022-10-05T17:45:43.591Z,99264.60
2022-10-05T17:48:12.977Z,99258.40
2022-10-05T17:51:08.366Z,99256.00
2022-10-05T17:54:05.712Z,99255.60
2022-10-05T17:56:53.667Z,99255.60
2022-10-05T17:59:58.999Z,99255.80
2022-10-05T18:02:38.461Z,99251.20
2022-10-05T18:05:04.929Z,99244.00
2022-10-05T18:07:37.127Z,99241.20
2022-10-05T18:10:09.747Z,99241.00
2022-10-05T18:12:36.079Z,99241.00
2022-10-05T18:15:22.331Z,99234.80
2022-10-05T18:17:57.360Z,99232.80
2022-10-05T18:20:32.578Z,99234.20
2022-10-05T18:23:09.500Z,99234.80
2022-10-05T18:25:53.075Z,99238.20
2022-10-05T18:28:47.245Z,99236.60
2022-10-05T18:31:42.202Z,99240.00
2022-10-05T18:34:34.971Z,99240.40
2022-10-05T18:38:00.745Z,99244.00
2022-10-05T18:40:54.062Z,99242.20
2022-10-05T18:43:38.007Z,99242.00
2022-10-05T18:46:22.572Z,99245.20
2022-10-05T18:49:51.858Z,99241.20
2022-10-05T18:53:05.033Z,99239.20
2022-10-05T18:56:12.152Z,99233.60
2022-10-05T18:58:53.208Z,99238.80
2022-10-05T19:02:02.165Z,99236.60
2022-10-05T19:05:00.115Z,99244.20
2022-10-05T19:07:38.654Z,99243.20
2022-10-05T19:10:40.044Z,99239.20
2022-10-05T19:13:20.739Z,99235.20
2022-10-05T19:16:03.123Z,99237.40
2022-10-05T19:19:22.290Z,99240.80
2022-10-05T19:22:12.591Z,99240.60
2022-10-05T19:24:57.097Z,99235.40
2022-10-05T19:28:04.142Z,99231.40
2022-10-05T19:31:21.341Z,99231.40
2022-10-05T19:34:33.206Z,99233.80
2022-10-05T19:37:25.028Z,99231.40
2022-10-05T19:40:09.676Z,99233.80
2022-10-05T19:43:21.039Z,99242.80
2022-10-05T19:46:14.154Z,99246.00
2022-10-05T19:48:52.340Z,99246.40
2022-10-05T19:51:29.299Z,99249.20
2022-10-05T19:54:29.140Z,99250.20
2022-10-05T19:56:57.802Z,99243.00
2022-10-05T19:59:32.567Z,99244.80
2022-10-05T20:01:59.486Z,99242.80
2022-10-05T20:04:40.888Z,99245.20
2022-10-05T20:07:15.799Z,99242.80
2022-10-05T20:09:59.121Z,99251.20
2022-10-05T20:13:01.534Z,99249.20
2022-10-05T20:16:13.575Z,99252.00
2022-10-05T20:19:07.685Z,99249.60
2022-10-05T20:21:59.820Z,99253.20
2022-10-05T20:24:29.693Z,99253.80
2022-10-05T20:27:02.773Z,99258.40
2022-10-05T20:29:37.654Z,99265.00
2022-10-05T20:32:12.186Z,99262.40
2022-10-05T20:34:42.208Z,99266.20
2022-10-05T20:37:11.577Z,99270.40
2022-10-05T20:39:39.349Z,99271.60
2022-10-05T20:42:07.770Z,99269.20
2022-10-05T20:44:36.408Z,99272.40
2022-10-05T20:47:04.862Z,99272.20
2022-10-05T20:49:32.528Z,99271.80
2022-10-05T20:51:59.247Z,99268.60
2022-10-05T20:54:27.598Z,99270.20
2022-10-05T20:56:55.886Z,99272.80
2022-10-05T20:59:24.943Z,99275.20
2022-10-05T21:01:52.450Z,99279.20
2022-10-05T21:04:23.254Z,99275.80
2022-10-05T21:06:49.800Z,99283.00
2022-10-05T21:09:19.504Z,99284.60
2022-10-05T21:11:49.981Z,99288.60
2022-10-05T21:14:17.273Z,99290.80
2022-10-05T21:16:45.858Z,99290.60
2022-10-05T21:19:14.695Z,99293.80
2022-10-05T21:21:46.001Z,99297.80
2022-10-05T21:24:14.974Z,99302.00
2022-10-05T21:26:42.521Z,99301.20
2022-10-05T21:29:12.810Z,99299.00
2022-10-05T21:31:40.087Z,99299.80
2022-10-05T21:34:07.520Z,99299.80
2022-10-05T21:36:34.575Z,99302.40
2022-10-05T21:39:01.524Z,99301.60
2022-10-05T21:41:28.265Z,99296.00
2022-10-05T21:43:54.789Z,99303.20
2022-10-05T21:46:25.777Z,99308.60
2022-10-05T21:48:54.310Z,99314.40
2022-10-05T21:51:25.367Z,99306.20
2022-10-05T21:54:03.710Z,99310.80
2022-10-05T21:56:38.610Z,99316.20
2022-10-05T21:59:10.153Z,99316.00
2022-10-05T22:01:36.898Z,99316.60
2022-10-05T22:04:07.403Z,99320.60
2022-10-05T22:06:36.223Z,99320.20
2022-10-05T22:09:05.444Z,99317.20
2022-10-05T22:11:32.416Z,99314.80
2022-10-05T22:14:02.738Z,99313.20
2022-10-05T22:16:34.219Z,99318.80
2022-10-05T22:19:16.411Z,99318.60
2022-10-05T22:21:42.984Z,99322.60
2022-10-05T22:24:11.652Z,99324.00
2022-10-05T22:26:41.929Z,99323.40
2022-10-05T22:29:09.550Z,99322.60
2022-10-05T22:31:36.915Z,99327.40
2022-10-05T22:34:03.455Z,99332.00
2022-10-05T22:36:30.082Z,99330.00
2022-10-05T22:38:56.585Z,99334.80
2022-10-05T22:41:23.093Z,99336.80
2022-10-05T22:43:50.851Z,99341.20
2022-10-05T22:46:18.499Z,99341.60
2022-10-05T22:48:45.088Z,99339.00
2022-10-05T22:51:11.879Z,99342.00
2022-10-05T22:53:38.535Z,99347.40
2022-10-05T22:56:13.190Z,99342.00
2022-10-05T22:58:41.614Z,99348.60
2022-10-05T23:01:11.996Z,99347.00
2022-10-05T23:03:38.809Z,99349.60
2022-10-05T23:06:20.222Z,99345.80
2022-10-05T23:08:47.542Z,99346.60
2022-10-05T23:11:17.463Z,99349.60
2022-10-05T23:13:44.741Z,99354.20
2022-10-05T23:16:14.968Z,99355.40
2022-10-05T23:18:42.493Z,99355.40
2022-10-05T23:21:11.071Z,99357.00
2022-10-05T23:23:40.372Z,99360.60
2022-10-05T23:26:10.871Z,99356.00
2022-10-05T23:28:43.190Z,99360.40
2022-10-05T23:31:09.840Z,99355.00
2022-10-05T23:33:36.590Z,99356.60
2022-10-05T23:36:14.042Z,99358.60
2022-10-05T23:38:40.632Z,99357.80
2022-10-05T23:41:08.699Z,99359.20
2022-10-05T23:43:36.761Z,99357.00
2022-10-05T23:46:05.878Z,99361.00
2022-10-05T23:48:34.061Z,99359.80
2022-10-05T23:51:00.574Z,99356.40
2022-10-05T23:53:27.429Z,99360.60
2022-10-05T23:55:54.864Z,99359.00
2022-10-05T23:58:22.589Z,99362.80
